Terminal Aerodrome Forecast
Issued by NWS Nashville, TN

Home | Current Version | Previous Version | Text Only | Print | Product List | Glossary On
Versions: 1 2 3 4 5 6 7 8 9 10 11 12 13 14 15 16 17 18 19 20 21 22 23 24 25 26 27 28 29 30 31 32 33 34
083
FTUS44 KOHX 101729
TAFCSV
TAF
KCSV 101729Z 1018/1118 28010G21KT P6SM BKN035
     FM110400 28006KT 5SM -SHSN BR OVC025
     FM110700 VRB03KT 4SM -SHSN BR OVC012
     FM111600 VRB04KT P6SM OVC030=

USA.gov is the U.S. government's official web portal to all federal, state and local government web resources and services.